Time;durP1;ratioP1;P1;durP2;ratioP2;P2;SDS_P1;SDS_P2;PMS_P1;PMS_P2;Temp;Humidity;BMP_temperature;BMP_pressure;BME280_temperature;BME280_humidity;BME280_pressure;Samples;Min_cycle;Max_cycle;Signal;HPM_P1;HPM_P2
2021/07/10 00:01:04;;;;;;;12.63;8.20;;;21.20;99.90;;;;;;4188805;28;20024;-61
2021/07/10 00:03:06;;;;;;;13.52;8.48;;;21.30;99.90;;;;;;4188746;28;20439;-62
2021/07/10 00:05:09;;;;;;;13.18;7.65;;;21.40;99.90;;;;;;4189355;28;20036;-63
2021/07/10 00:07:10;;;;;;;12.23;7.30;;;21.40;99.90;;;;;;4190421;28;20081;-63
2021/07/10 00:09:11;;;;;;;8.73;6.13;;;21.50;99.90;;;;;;4205858;28;20028;-62
2021/07/10 00:11:12;;;;;;;10.50;6.90;;;21.50;99.90;;;;;;4204790;28;20078;-62
2021/07/10 00:13:13;;;;;;;14.52;6.43;;;21.50;99.90;;;;;;4205625;28;20566;-63
2021/07/10 00:15:20;;;;;;;7.78;6.18;;;21.60;99.90;;;;;;4205486;28;20035;-62
2021/07/10 00:17:21;;;;;;;8.93;6.45;;;21.60;99.90;;;;;;4205797;28;20024;-62
2021/07/10 00:19:25;;;;;;;8.82;7.10;;;21.60;99.90;;;;;;4205240;28;20059;-62
2021/07/10 00:21:26;;;;;;;10.48;6.72;;;21.60;99.90;;;;;;4205547;28;20024;-62
2021/07/10 00:23:28;;;;;;;23.83;18.17;;;21.60;99.90;;;;;;4207968;28;20031;-62
2021/07/10 00:25:29;;;;;;;29.80;19.15;;;21.60;99.90;;;;;;4190659;28;20110;-62
2021/07/10 00:27:30;;;;;;;28.33;20.25;;;21.60;99.90;;;;;;4192464;28;20044;-60
2021/07/10 00:29:31;;;;;;;21.35;16.38;;;21.60;99.90;;;;;;4191658;28;20545;-62
2021/07/10 00:31:32;;;;;;;26.60;17.30;;;21.60;99.90;;;;;;4192262;28;20024;-63
2021/07/10 00:33:33;;;;;;;22.02;16.85;;;21.60;99.90;;;;;;4192087;28;20099;-63
2021/07/10 00:35:36;;;;;;;12.32;9.68;;;21.50;99.90;;;;;;4191575;28;20497;-62
2021/07/10 00:37:38;;;;;;;9.65;8.30;;;21.40;99.90;;;;;;4191493;28;20033;-60
2021/07/10 00:39:39;;;;;;;11.07;7.97;;;21.20;99.90;;;;;;4192143;28;20040;-62
2021/07/10 00:41:40;;;;;;;14.40;8.50;;;21.10;99.90;;;;;;4190891;28;20094;-62
2021/07/10 00:43:47;;;;;;;8.55;7.30;;;21.10;99.90;;;;;;4191575;28;20484;-63
2021/07/10 00:45:48;;;;;;;13.13;6.95;;;21.10;99.90;;;;;;4190922;28;20875;-62
2021/07/10 00:47:49;;;;;;;9.35;6.25;;;21.20;99.90;;;;;;4192047;28;20036;-62
2021/07/10 00:49:51;;;;;;;10.98;7.25;;;21.30;99.90;;;;;;4191294;28;20028;-62
2021/07/10 00:51:52;;;;;;;11.90;6.32;;;21.30;99.90;;;;;;4190228;28;20501;-62
2021/07/10 00:53:53;;;;;;;10.00;6.07;;;21.40;99.90;;;;;;4191027;28;20032;-63
2021/07/10 00:55:55;;;;;;;10.35;6.32;;;21.50;99.90;;;;;;4191865;28;20859;-62
2021/07/10 00:57:57;;;;;;;8.27;6.30;;;21.60;99.90;;;;;;4191768;28;20756;-63
2021/07/10 00:59:58;;;;;;;12.13;6.55;;;21.60;99.90;;;;;;4191860;28;20037;-62
2021/07/10 01:01:59;;;;;;;8.93;6.28;;;21.60;99.90;;;;;;4191598;28;20052;-62
2021/07/10 01:04:00;;;;;;;8.75;6.28;;;21.70;99.90;;;;;;4191853;28;20048;-63
2021/07/10 01:06:02;;;;;;;7.78;5.68;;;21.70;99.90;;;;;;4191601;28;20086;-63
2021/07/10 01:08:03;;;;;;;8.45;6.18;;;21.80;99.90;;;;;;4191307;28;20020;-63
2021/07/10 01:10:05;;;;;;;8.95;5.93;;;21.80;99.90;;;;;;4191651;28;20036;-62
2021/07/10 01:12:06;;;;;;;11.52;6.07;;;21.80;99.90;;;;;;4191081;28;20078;-62
2021/07/10 01:14:07;;;;;;;9.43;5.32;;;21.80;99.90;;;;;;4191320;28;20029;-62
2021/07/10 01:16:09;;;;;;;10.30;6.03;;;21.80;99.90;;;;;;4191168;28;20033;-62
2021/07/10 01:18:10;;;;;;;8.13;6.10;;;21.80;99.90;;;;;;4191186;28;20086;-62
2021/07/10 01:20:13;;;;;;;11.68;6.03;;;21.70;99.90;;;;;;4189535;28;20078;-62
2021/07/10 01:22:14;;;;;;;9.25;6.03;;;21.80;99.90;;;;;;4191076;28;20048;-62
2021/07/10 01:24:15;;;;;;;7.55;5.80;;;21.80;99.90;;;;;;4190717;28;20750;-62
2021/07/10 01:26:20;;;;;;;6.00;5.05;;;21.80;99.90;;;;;;4191430;28;20064;-63
2021/07/10 01:28:21;;;;;;;11.55;5.22;;;21.80;99.90;;;;;;4191477;28;20098;-62
2021/07/10 01:30:23;;;;;;;8.18;6.38;;;21.90;99.90;;;;;;4190182;28;20066;-62
2021/07/10 01:32:24;;;;;;;8.43;5.82;;;21.90;99.90;;;;;;4191158;28;20048;-61
2021/07/10 01:34:26;;;;;;;6.15;5.55;;;21.80;99.90;;;;;;4190440;28;20097;-63
2021/07/10 01:36:29;;;;;;;11.05;6.78;;;21.90;99.90;;;;;;4191048;28;20033;-62
2021/07/10 01:38:30;;;;;;;7.10;5.50;;;21.80;99.90;;;;;;4189899;28;20040;-63
2021/07/10 01:40:32;;;;;;;6.93;6.07;;;21.80;99.90;;;;;;4191294;28;20056;-63
2021/07/10 01:42:33;;;;;;;7.20;6.03;;;21.90;99.90;;;;;;4191060;28;20040;-62
2021/07/10 01:44:35;;;;;;;10.60;6.07;;;21.80;99.90;;;;;;4191152;28;20090;-62
2021/07/10 01:46:36;;;;;;;6.90;5.97;;;21.70;99.90;;;;;;4190485;28;20492;-61
2021/07/10 01:48:37;;;;;;;14.45;6.63;;;21.60;99.90;;;;;;4190895;28;20040;-62
2021/07/10 01:50:43;;;;;;;11.05;6.13;;;21.50;99.90;;;;;;4190216;28;20101;-63
2021/07/10 01:52:45;;;;;;;9.55;6.60;;;21.50;99.90;;;;;;4191340;28;20036;-62
2021/07/10 01:54:46;;;;;;;9.25;6.53;;;21.50;99.90;;;;;;4189975;28;20443;-62
2021/07/10 01:56:47;;;;;;;11.35;6.10;;;21.50;99.90;;;;;;4191075;28;20032;-63
2021/07/10 01:58:50;;;;;;;7.93;5.90;;;21.60;99.90;;;;;;4190066;28;20020;-62
2021/07/10 02:00:51;;;;;;;10.63;6.07;;;21.60;99.90;;;;;;4190772;28;20024;-62
2021/07/10 02:02:53;;;;;;;8.45;5.18;;;21.60;99.90;;;;;;4190419;28;20044;-61
2021/07/10 02:04:55;;;;;;;9.18;6.60;;;21.70;99.90;;;;;;4190293;28;20017;-62
2021/07/10 02:06:56;;;;;;;9.75;5.57;;;21.70;99.90;;;;;;4190419;28;20445;-62
2021/07/10 02:08:58;;;;;;;11.80;6.50;;;21.70;99.90;;;;;;4190526;28;20032;-60
2021/07/10 02:10:59;;;;;;;13.57;6.85;;;21.60;99.90;;;;;;4190840;28;20430;-62
2021/07/10 02:13:12;;;;;;;10.82;6.90;;;21.50;99.90;;;;;;4190205;28;20086;-62
2021/07/10 02:15:13;;;;;;;16.92;7.43;;;21.40;99.90;;;;;;4190579;28;20931;-62
2021/07/10 02:17:14;;;;;;;8.90;7.07;;;21.30;99.90;;;;;;4189784;28;20126;-63
2021/07/10 02:19:16;;;;;;;9.90;6.57;;;21.20;99.90;;;;;;4190277;28;20101;-62
2021/07/10 02:21:17;;;;;;;8.68;5.75;;;21.10;99.90;;;;;;4189884;28;20028;-65
2021/07/10 02:23:18;;;;;;;8.65;7.10;;;21.10;99.90;;;;;;4190624;28;20548;-62
2021/07/10 02:25:21;;;;;;;8.23;7.10;;;21.00;99.90;;;;;;4189259;28;20527;-62
2021/07/10 02:27:22;;;;;;;10.82;7.50;;;20.90;99.90;;;;;;4190905;28;20050;-62
2021/07/10 02:29:23;;;;;;;11.05;7.10;;;20.80;99.90;;;;;;4189878;28;20095;-63
2021/07/10 02:31:24;;;;;;;8.93;5.82;;;20.70;99.90;;;;;;4190566;28;20024;-62
2021/07/10 02:33:25;;;;;;;10.38;6.70;;;20.80;99.90;;;;;;4189854;28;20816;-62
2021/07/10 02:35:28;;;;;;;7.60;6.72;;;20.80;99.90;;;;;;4189986;28;20102;-62
2021/07/10 02:37:29;;;;;;;11.60;6.93;;;20.80;99.90;;;;;;4189578;28;20025;-61
2021/07/10 02:39:30;;;;;;;10.52;6.88;;;20.80;99.90;;;;;;4190183;28;20473;-62
2021/07/10 02:41:31;;;;;;;13.90;7.50;;;20.80;99.90;;;;;;4189584;28;20046;-62
2021/07/10 02:43:33;;;;;;;8.05;6.78;;;20.80;99.90;;;;;;4189678;28;20045;-61
2021/07/10 02:45:35;;;;;;;11.18;6.45;;;20.80;99.90;;;;;;4188861;28;20033;-62
2021/07/10 02:47:37;;;;;;;10.63;6.85;;;20.80;99.90;;;;;;4189954;28;20489;-62
2021/07/10 02:49:38;;;;;;;8.50;6.63;;;20.80;99.90;;;;;;4189734;28;20457;-62
2021/07/10 02:51:39;;;;;;;9.70;7.10;;;20.80;99.90;;;;;;4189476;28;20072;-63
2021/07/10 02:53:41;;;;;;;12.45;6.72;;;20.90;99.90;;;;;;4190037;28;20075;-62
2021/07/10 02:55:43;;;;;;;10.13;6.55;;;21.00;99.90;;;;;;4189965;28;20032;-62
2021/07/10 02:57:44;;;;;;;8.88;6.45;;;21.10;99.90;;;;;;4190362;28;20083;-61
2021/07/10 02:59:45;;;;;;;8.93;6.30;;;21.20;99.90;;;;;;4189050;28;20032;-62
2021/07/10 03:01:46;;;;;;;9.90;6.30;;;21.30;99.90;;;;;;4189500;28;20452;-62
2021/07/10 03:03:47;;;;;;;7.57;6.75;;;21.40;99.90;;;;;;4188888;28;20480;-61
2021/07/10 03:05:50;;;;;;;7.75;6.60;;;21.40;99.90;;;;;;4189315;28;20040;-62
2021/07/10 03:07:51;;;;;;;9.85;6.30;;;21.60;99.90;;;;;;4189788;28;20054;-62
2021/07/10 03:09:52;;;;;;;8.00;6.10;;;21.70;99.90;;;;;;4189381;28;20082;-63
2021/07/10 03:11:53;;;;;;;9.95;6.82;;;21.90;99.90;;;;;;4189808;28;20024;-62
2021/07/10 03:13:54;;;;;;;8.40;6.57;;;22.10;99.90;;;;;;4189223;28;20473;-62
2021/07/10 03:15:55;;;;;;;11.15;6.25;;;22.20;99.90;;;;;;4191819;28;20086;-62
2021/07/10 03:17:57;;;;;;;11.75;6.80;;;22.40;99.90;;;;;;4206383;28;20426;-63
2021/07/10 03:19:59;;;;;;;11.20;6.80;;;22.40;99.90;;;;;;4206230;28;20414;-62
2021/07/10 03:22:00;;;;;;;10.38;6.32;;;22.50;99.90;;;;;;4205645;28;20089;-62
2021/07/10 03:24:03;;;;;;;7.93;5.90;;;22.50;99.90;;;;;;4206329;28;20430;-63
2021/07/10 03:26:05;;;;;;;10.02;6.22;;;22.60;99.90;;;;;;4205778;28;20469;-62
2021/07/10 03:28:06;;;;;;;6.85;5.70;;;22.70;99.90;;;;;;4194938;28;20032;-62
2021/07/10 03:30:09;;;;;;;7.70;5.88;;;22.90;99.90;;;;;;4189080;28;20544;-62
2021/07/10 03:32:10;;;;;;;6.88;5.78;;;23.20;99.90;;;;;;4189037;28;20089;-62
2021/07/10 03:34:11;;;;;;;9.10;6.50;;;23.50;99.90;;;;;;4188865;28;20032;-62
2021/07/10 03:36:13;;;;;;;6.57;5.25;;;23.90;99.90;;;;;;4188801;28;20052;-62
2021/07/10 03:38:14;;;;;;;12.90;5.78;;;24.30;99.90;;;;;;4188900;28;20089;-62
2021/07/10 03:40:22;;;;;;;6.60;5.80;;;24.60;99.90;;;;;;4189198;28;20634;-63
2021/07/10 03:42:23;;;;;;;10.98;6.40;;;24.80;99.90;;;;;;4189194;28;20053;-63
2021/07/10 03:44:24;;;;;;;7.05;5.60;;;25.00;99.90;;;;;;4189102;28;20040;-62
2021/07/10 03:46:25;;;;;;;8.98;5.55;;;25.30;99.90;;;;;;4188841;28;20044;-63
2021/07/10 03:48:26;;;;;;;10.43;6.43;;;25.50;99.90;;;;;;4188935;28;20448;-62
2021/07/10 03:50:27;;;;;;;8.15;5.45;;;25.50;99.90;;;;;;4188405;28;20090;-62
2021/07/10 03:52:28;;;;;;;8.77;5.50;;;25.30;99.90;;;;;;4187764;28;20032;-62
2021/07/10 03:54:30;;;;;;;8.35;5.80;;;25.10;99.90;;;;;;4188864;28;20098;-62
2021/07/10 03:56:31;;;;;;;11.95;5.68;;;25.10;99.90;;;;;;4188849;28;20473;-63
2021/07/10 03:58:32;;;;;;;9.52;5.22;;;25.30;99.90;;;;;;4189623;28;20040;-63
2021/07/10 04:00:33;;;;;;;7.65;4.70;;;25.80;99.90;;;;;;4187840;28;20086;-63
2021/07/10 04:02:34;;;;;;;9.63;5.10;;;26.30;99.90;;;;;;4188665;28;20488;-63
2021/07/10 04:04:35;;;;;;;5.55;4.85;;;26.60;99.90;;;;;;4188694;28;20077;-64
2021/07/10 04:06:37;;;;;;;11.77;4.90;;;26.90;99.90;;;;;;4188695;28;20055;-63
2021/07/10 04:08:38;;;;;;;8.20;5.65;;;26.90;99.90;;;;;;4188701;28;20895;-62
2021/07/10 04:10:39;;;;;;;8.55;5.28;;;26.90;99.90;;;;;;4188849;28;20408;-63
2021/07/10 04:12:41;;;;;;;8.13;5.40;;;26.90;99.90;;;;;;4188706;28;20037;-62
2021/07/10 04:14:43;;;;;;;10.73;6.13;;;26.90;99.90;;;;;;4188766;28;20106;-62
2021/07/10 04:16:46;;;;;;;11.73;5.38;;;26.80;99.90;;;;;;4188617;28;20021;-62
2021/07/10 04:18:47;;;;;;;11.25;5.68;;;26.70;99.90;;;;;;4172035;28;20087;-63
2021/07/10 04:20:48;;;;;;;11.00;5.47;;;26.70;99.90;;;;;;4172184;28;20025;-62
2021/07/10 04:22:50;;;;;;;8.57;5.30;;;26.90;99.90;;;;;;4171506;28;20060;-61
2021/07/10 04:24:51;;;;;;;9.10;5.38;;;27.30;99.90;;;;;;4171817;28;20083;-62
2021/07/10 04:26:52;;;;;;;12.93;5.82;;;27.90;99.90;;;;;;4173519;28;20033;-62
2021/07/10 04:28:54;;;;;;;14.82;6.55;;;28.30;99.90;;;;;;4189426;28;20037;-62
2021/07/10 04:30:55;;;;;;;10.48;6.38;;;28.60;99.90;;;;;;4188034;28;20036;-62
2021/07/10 04:32:56;;;;;;;13.18;6.40;;;28.90;99.90;;;;;;4188827;28;20044;-62
2021/07/10 04:34:57;;;;;;;11.30;6.53;;;29.10;99.60;;;;;;4187807;28;20048;-62
2021/07/10 04:36:59;;;;;;;12.05;5.78;;;28.90;99.40;;;;;;4188162;28;20478;-62
2021/07/10 04:39:00;;;;;;;8.52;5.68;;;28.80;99.50;;;;;;4188344;28;20024;-62
2021/07/10 04:41:01;;;;;;;8.75;5.80;;;28.40;99.50;;;;;;4188494;28;20439;-62
2021/07/10 04:43:02;;;;;;;14.20;5.53;;;28.30;99.80;;;;;;4188011;28;20048;-62
2021/07/10 04:45:08;;;;;;;22.60;6.03;;;28.20;99.90;;;;;;4188265;28;20145;-61
2021/07/10 04:47:09;;;;;;;13.63;6.25;;;28.20;99.80;;;;;;4188226;28;20032;-62
2021/07/10 04:49:11;;;;;;;14.63;6.72;;;28.10;99.80;;;;;;4188301;28;20742;-61
2021/07/10 04:51:12;;;;;;;10.50;5.35;;;28.00;99.90;;;;;;4188134;28;20109;-61
2021/07/10 04:53:13;;;;;;;12.25;6.88;;;28.50;99.70;;;;;;4188461;28;20090;-62
2021/07/10 04:55:15;;;;;;;12.15;6.30;;;29.00;99.20;;;;;;4188305;28;20117;-61
2021/07/10 04:57:17;;;;;;;14.95;7.18;;;29.10;98.70;;;;;;4188729;28;20105;-62
2021/07/10 04:59:18;;;;;;;10.75;7.45;;;29.30;98.50;;;;;;4188230;28;20557;-61
2021/07/10 05:01:19;;;;;;;16.50;9.00;;;29.40;98.30;;;;;;4187442;28;20461;-62
2021/07/10 05:03:20;;;;;;;15.20;9.27;;;29.40;98.00;;;;;;4188305;28;20078;-61
2021/07/10 05:05:22;;;;;;;10.88;6.85;;;29.40;97.80;;;;;;4187355;28;20040;-61
2021/07/10 05:07:24;;;;;;;13.02;6.95;;;29.40;97.80;;;;;;4187020;28;20083;-62
2021/07/10 05:09:25;;;;;;;13.55;7.30;;;29.60;97.70;;;;;;4190041;28;20090;-62
2021/07/10 05:11:26;;;;;;;8.45;5.97;;;30.10;97.30;;;;;;4191336;28;20033;-62
2021/07/10 05:13:27;;;;;;;8.93;5.55;;;30.20;96.60;;;;;;4190912;28;20082;-62
2021/07/10 05:15:29;;;;;;;10.60;5.80;;;30.10;96.50;;;;;;4191636;28;20036;-62
2021/07/10 05:17:31;;;;;;;12.20;5.90;;;30.60;96.20;;;;;;4190464;28;20044;-61
2021/07/10 05:19:32;;;;;;;12.27;6.05;;;30.60;95.70;;;;;;4190687;28;20044;-61
2021/07/10 05:21:34;;;;;;;9.48;7.15;;;30.30;95.70;;;;;;4190371;28;20036;-62
2021/07/10 05:23:35;;;;;;;10.05;7.72;;;30.00;95.90;;;;;;4190600;28;20028;-61
2021/07/10 05:25:36;;;;;;;12.50;7.10;;;29.60;96.20;;;;;;4191467;28;20090;-62
2021/07/10 05:27:38;;;;;;;7.95;5.50;;;29.00;96.60;;;;;;4191529;28;20029;-62
2021/07/10 05:29:39;;;;;;;13.27;7.57;;;28.40;96.60;;;;;;4190877;28;20078;-61
2021/07/10 05:31:40;;;;;;;10.60;7.57;;;28.10;96.90;;;;;;4189941;28;20166;-62
2021/07/10 05:33:43;;;;;;;13.85;8.65;;;28.10;97.20;;;;;;4191167;28;20090;-63
2021/07/10 05:35:45;;;;;;;17.33;8.55;;;27.70;97.90;;;;;;4190023;28;20090;-62
2021/07/10 05:37:47;;;;;;;12.35;7.32;;;28.10;97.70;;;;;;4190546;28;20105;-62
2021/07/10 05:39:49;;;;;;;10.20;6.65;;;28.70;97.30;;;;;;4190750;28;20059;-62
2021/07/10 05:41:50;;;;;;;13.85;8.15;;;29.40;96.70;;;;;;4190529;28;20762;-63
2021/07/10 05:43:51;;;;;;;10.95;7.22;;;30.10;96.00;;;;;;4190088;28;20106;-63
2021/07/10 05:45:55;;;;;;;13.10;7.18;;;30.50;95.50;;;;;;4190010;28;20451;-61
2021/07/10 05:47:56;;;;;;;10.55;5.78;;;31.00;95.00;;;;;;4190707;28;20070;-61
2021/07/10 05:49:57;;;;;;;10.32;5.88;;;31.40;94.50;;;;;;4190736;28;20556;-61
2021/07/10 05:51:58;;;;;;;9.23;5.53;;;31.70;94.00;;;;;;4190390;28;20093;-61
2021/07/10 05:53:59;;;;;;;10.45;5.88;;;31.70;93.80;;;;;;4190364;28;20070;-62
2021/07/10 05:56:00;;;;;;;11.85;5.13;;;32.00;93.30;;;;;;4190526;28;20017;-63
2021/07/10 05:58:03;;;;;;;8.98;4.72;;;31.90;92.90;;;;;;4190347;28;20086;-61
2021/07/10 06:00:09;;;;;;;5.35;4.47;;;31.70;92.40;;;;;;4190382;28;20082;-63
2021/07/10 06:02:10;;;;;;;11.05;4.38;;;31.60;91.90;;;;;;4190143;28;20036;-62
2021/07/10 06:04:11;;;;;;;5.97;4.05;;;31.30;91.90;;;;;;4190437;28;20049;-62
2021/07/10 06:06:15;;;;;;;10.40;4.22;;;31.40;91.70;;;;;;4190003;28;20801;-62
2021/07/10 06:08:16;;;;;;;10.55;5.50;;;31.50;91.40;;;;;;4190165;28;20058;-66
2021/07/10 06:10:17;;;;;;;15.93;5.10;;;30.90;91.40;;;;;;4189610;28;20544;-62
2021/07/10 06:12:19;;;;;;;11.02;5.05;;;30.00;92.10;;;;;;4190579;28;20032;-63
2021/07/10 06:14:21;;;;;;;80.28;35.25;;;29.90;92.60;;;;;;4189811;28;20033;-62
2021/07/10 06:16:22;;;;;;;19.15;7.65;;;30.00;92.60;;;;;;4190316;28;20052;-62
2021/07/10 06:18:23;;;;;;;7.63;4.57;;;30.30;92.40;;;;;;4190033;28;20037;-62
2021/07/10 06:20:24;;;;;;;5.93;4.20;;;30.40;92.10;;;;;;4189223;28;20085;-67
2021/07/10 06:22:25;;;;;;;4.78;4.00;;;30.50;92.10;;;;;;4188944;28;20516;-64
2021/07/10 06:24:27;;;;;;;8.02;4.97;;;30.40;92.10;;;;;;4190114;28;20056;-64
2021/07/10 06:26:28;;;;;;;7.57;4.78;;;30.60;92.00;;;;;;4190065;28;20028;-64
2021/07/10 06:28:29;;;;;;;6.60;4.63;;;30.60;91.70;;;;;;4190135;28;20090;-64
2021/07/10 06:30:30;;;;;;;6.40;5.47;;;30.50;91.70;;;;;;4190452;28;20048;-62
2021/07/10 06:32:31;;;;;;;7.18;4.60;;;30.20;91.70;;;;;;4189349;28;20090;-62
2021/07/10 06:34:34;;;;;;;8.48;4.97;;;29.80;92.10;;;;;;4189364;28;20051;-62
2021/07/10 06:36:35;;;;;;;6.00;4.40;;;29.60;92.20;;;;;;4189225;28;20074;-62
2021/07/10 06:38:36;;;;;;;10.48;4.80;;;29.70;92.10;;;;;;4189296;28;20037;-62
2021/07/10 06:40:37;;;;;;;9.85;4.90;;;29.70;92.00;;;;;;4189131;28;20036;-60
2021/07/10 06:42:39;;;;;;;9.95;5.45;;;29.40;92.10;;;;;;4189789;28;20362;-62
2021/07/10 06:44:40;;;;;;;7.03;4.57;;;28.90;92.40;;;;;;4189408;28;20106;-62
2021/07/10 06:46:41;;;;;;;9.40;4.72;;;28.80;92.60;;;;;;4189372;28;20085;-66
2021/07/10 06:48:45;;;;;;;8.88;4.68;;;29.10;92.60;;;;;;4188866;28;20033;-62
2021/07/10 06:50:46;;;;;;;6.53;5.45;;;29.20;92.30;;;;;;4189390;28;20033;-67
2021/07/10 06:52:48;;;;;;;7.32;4.88;;;28.80;92.40;;;;;;4188964;28;20467;-68
2021/07/10 06:54:49;;;;;;;7.60;5.47;;;28.70;92.70;;;;;;4189086;28;20481;-65
2021/07/10 06:56:50;;;;;;;9.85;5.43;;;28.70;92.80;;;;;;4189404;28;20032;-61
2021/07/10 06:58:51;;;;;;;7.75;5.45;;;28.40;93.00;;;;;;4189688;28;20572;-61
2021/07/10 07:00:52;;;;;;;7.32;5.45;;;28.50;93.10;;;;;;4189396;28;20040;-64
2021/07/10 07:02:53;;;;;;;10.85;5.55;;;28.40;93.10;;;;;;4188804;28;20848;-62
2021/07/10 07:04:54;;;;;;;6.10;4.93;;;28.20;93.20;;;;;;4188035;28;20028;-65
2021/07/10 07:06:55;;;;;;;12.05;5.40;;;28.40;93.10;;;;;;4189461;28;20102;-64
2021/07/10 07:08:56;;;;;;;9.75;4.95;;;28.60;93.00;;;;;;4188892;28;20046;-64
2021/07/10 07:10:58;;;;;;;7.43;5.18;;;28.40;92.80;;;;;;4188375;28;20036;-65
2021/07/10 07:12:59;;;;;;;5.55;4.65;;;28.40;93.10;;;;;;4188733;28;20024;-63
2021/07/10 07:15:01;;;;;;;9.05;4.90;;;28.30;93.00;;;;;;4188714;28;20032;-63
2021/07/10 07:17:03;;;;;;;6.30;5.13;;;28.30;93.00;;;;;;4189520;28;20041;-63
2021/07/10 07:19:04;;;;;;;6.90;5.47;;;28.10;93.10;;;;;;4188430;28;20017;-60
2021/07/10 07:21:05;;;;;;;10.32;5.43;;;27.90;93.40;;;;;;4188448;28;20426;-64
2021/07/10 07:23:07;;;;;;;7.50;5.40;;;27.90;93.60;;;;;;4188101;28;20826;-65
2021/07/10 07:25:08;;;;;;;6.18;5.38;;;27.70;93.80;;;;;;4188360;28;20036;-62
2021/07/10 07:27:09;;;;;;;9.18;5.60;;;27.80;93.70;;;;;;4188218;28;20052;-68
2021/07/10 07:29:10;;;;;;;8.73;5.20;;;27.70;93.80;;;;;;4189184;28;20083;-61
2021/07/10 07:31:12;;;;;;;7.95;5.20;;;27.50;94.20;;;;;;4188471;28;20040;-62
2021/07/10 07:33:13;;;;;;;13.30;5.20;;;27.60;94.10;;;;;;4189189;28;20546;-65
2021/07/10 07:35:16;;;;;;;7.25;5.28;;;27.70;94.10;;;;;;4188132;28;20053;-63
2021/07/10 07:37:17;;;;;;;8.10;4.63;;;27.90;93.90;;;;;;4187628;28;20041;-61
2021/07/10 07:39:18;;;;;;;10.05;5.32;;;28.10;93.80;;;;;;4188719;28;20090;-60
2021/07/10 07:41:19;;;;;;;10.25;5.10;;;28.00;93.80;;;;;;4187681;28;20037;-61
2021/07/10 07:43:21;;;;;;;8.23;4.90;;;27.90;94.00;;;;;;4188774;28;20032;-60
2021/07/10 07:45:24;;;;;;;5.68;4.40;;;28.00;94.30;;;;;;4188218;28;20429;-60
2021/07/10 07:47:25;;;;;;;6.20;4.78;;;28.00;93.90;;;;;;4187279;28;20106;-62
2021/07/10 07:49:26;;;;;;;8.63;5.25;;;27.70;94.00;;;;;;4187155;28;20032;-60
2021/07/10 07:51:30;;;;;;;5.65;4.50;;;27.70;94.10;;;;;;4188798;28;20040;-60
2021/07/10 07:53:31;;;;;;;9.40;4.60;;;27.80;94.30;;;;;;4188078;28;20550;-60
2021/07/10 07:55:33;;;;;;;9.07;4.63;;;28.00;94.00;;;;;;4186950;28;20114;-56
2021/07/10 07:57:34;;;;;;;7.78;5.07;;;28.00;93.90;;;;;;4188245;28;20086;-60
2021/07/10 07:59:36;;;;;;;8.68;4.75;;;28.00;93.90;;;;;;4188429;28;20033;-63
2021/07/10 08:01:37;;;;;;;8.20;5.05;;;28.00;93.80;;;;;;4186855;28;20110;-59
2021/07/10 08:03:38;;;;;;;6.68;4.60;;;27.80;93.80;;;;;;4187493;28;20040;-62
2021/07/10 08:05:40;;;;;;;9.18;4.68;;;27.70;93.80;;;;;;4179438;28;20087;-60
2021/07/10 08:07:42;;;;;;;5.28;4.78;;;27.50;94.00;;;;;;4170752;28;20090;-62
2021/07/10 08:09:43;;;;;;;7.03;5.07;;;27.40;94.20;;;;;;4175230;28;20086;-61
2021/07/10 08:11:44;;;;;;;9.40;5.07;;;27.60;94.30;;;;;;4188028;28;20314;-63
2021/07/10 08:13:46;;;;;;;8.40;4.97;;;27.80;94.10;;;;;;4188262;28;20045;-61
2021/07/10 08:15:47;;;;;;;9.07;4.85;;;27.80;94.00;;;;;;4187359;28;20040;-62
2021/07/10 08:17:50;;;;;;;6.35;4.40;;;27.80;94.00;;;;;;4188205;28;20041;-60
2021/07/10 08:19:51;;;;;;;6.28;4.35;;;27.90;93.90;;;;;;4187667;28;20091;-60
2021/07/10 08:21:52;;;;;;;4.95;4.45;;;28.00;93.90;;;;;;4188509;28;20028;-60
2021/07/10 08:23:55;;;;;;;9.02;5.15;;;28.10;93.70;;;;;;4187355;28;20126;-61
2021/07/10 08:25:56;;;;;;;7.95;4.68;;;28.10;93.80;;;;;;4188333;28;20071;-61
2021/07/10 08:27:58;;;;;;;7.75;4.88;;;28.10;93.80;;;;;;4187924;28;20040;-62
2021/07/10 08:29:59;;;;;;;10.50;4.78;;;28.10;93.90;;;;;;4196279;28;20477;-62
2021/07/10 08:32:02;;;;;;;9.35;5.15;;;28.00;94.30;;;;;;4173796;28;20782;-60
2021/07/10 08:34:03;;;;;;;6.50;5.00;;;28.10;94.10;;;;;;4187634;28;20024;-60
2021/07/10 08:36:07;;;;;;;8.00;4.88;;;28.10;94.10;;;;;;4187671;28;20173;-60
2021/07/10 08:38:09;;;;;;;5.90;5.00;;;28.40;94.00;;;;;;4187810;28;20028;-61
2021/07/10 08:40:11;;;;;;;9.50;5.20;;;28.40;93.80;;;;;;4187747;28;20028;-60
2021/07/10 08:42:12;;;;;;;9.57;4.80;;;28.40;93.80;;;;;;4187733;28;20659;-60
2021/07/10 08:44:15;;;;;;;8.55;5.18;;;28.40;94.00;;;;;;4190584;28;20730;-61
2021/07/10 08:46:18;;;;;;;6.95;5.13;;;28.60;93.90;;;;;;4190756;28;20927;-60
2021/07/10 08:48:19;;;;;;;8.18;4.68;;;28.80;93.70;;;;;;4191062;28;20036;-60
2021/07/10 08:50:21;;;;;;;5.78;5.20;;;28.80;93.50;;;;;;4190456;28;20474;-59
2021/07/10 08:52:22;;;;;;;7.97;6.45;;;28.80;93.50;;;;;;4190693;28;20074;-61
2021/07/10 08:54:23;;;;;;;7.63;5.65;;;28.60;93.70;;;;;;4190311;28;20427;-61
2021/07/10 08:56:24;;;;;;;8.85;5.15;;;28.70;93.90;;;;;;4191016;28;20036;-61
2021/07/10 08:58:26;;;;;;;9.23;5.30;;;28.70;93.80;;;;;;4190820;28;20487;-61
2021/07/10 09:00:39;;;;;;;7.05;4.97;;;28.90;93.80;;;;;;4190591;28;20029;-60
2021/07/10 09:02:43;;;;;;;7.75;5.50;;;29.20;93.80;;;;;;4189729;28;20106;-61
2021/07/10 09:04:44;;;;;;;9.40;5.20;;;29.50;93.50;;;;;;4190439;28;20052;-60
2021/07/10 09:06:45;;;;;;;7.53;5.15;;;29.40;93.50;;;;;;4190643;28;20102;-59
2021/07/10 09:08:55;;;;;;;7.05;4.78;;;29.10;93.40;;;;;;4190461;28;20038;-61
2021/07/10 09:11:00;;;;;;;10.55;4.90;;;29.10;93.50;;;;;;4190531;28;20801;-62
2021/07/10 09:13:02;;;;;;;7.80;4.90;;;29.00;93.40;;;;;;4190675;28;20036;-60
2021/07/10 09:15:17;;;;;;;8.80;4.88;;;28.90;93.50;;;;;;4190554;28;20070;-61
2021/07/10 09:17:20;;;;;;;14.73;8.43;;;28.70;93.60;;;;;;4190504;28;20098;-59
2021/07/10 09:19:25;;;;;;;5.32;4.82;;;28.70;93.90;;;;;;4190689;28;20075;-61
2021/07/10 09:21:48;;;;;;;5.15;4.60;;;28.80;93.90;;;;;;4190295;28;20621;-59
2021/07/10 09:23:50;;;;;;;4.85;4.45;;;28.90;93.70;;;;;;4190155;28;20382;-63
2021/07/10 09:25:52;;;;;;;18.52;10.32;;;29.00;94.10;;;;;;4190625;28;20040;-59
2021/07/10 09:27:56;;;;;;;8.48;4.85;;;29.30;93.70;;;;;;4190222;28;20036;-60
2021/07/10 09:29:57;;;;;;;7.35;4.80;;;29.30;93.50;;;;;;4190983;28;20029;-61
2021/07/10 09:32:01;;;;;;;8.13;5.38;;;29.40;93.70;;;;;;4190334;28;20474;-61
2021/07/10 09:34:08;;;;;;;6.47;4.90;;;29.50;93.70;;;;;;4189915;28;20037;-60
2021/07/10 09:36:10;;;;;;;9.82;4.80;;;29.50;93.50;;;;;;4188702;28;20048;-61
2021/07/10 09:38:37;;;;;;;6.15;5.55;;;29.40;93.70;;;;;;4190063;28;20438;-60
2021/07/10 09:40:38;;;;;;;14.02;5.20;;;29.00;93.90;;;;;;4188177;28;20821;-60
2021/07/10 09:42:44;;;;;;;10.32;5.00;;;28.80;94.20;;;;;;4189858;28;20097;-61
2021/07/10 09:44:47;;;;;;;5.85;4.80;;;28.70;94.50;;;;;;4189237;28;20048;-60
2021/07/10 09:46:48;;;;;;;7.95;5.53;;;28.90;94.50;;;;;;4189332;28;20078;-60
2021/07/10 09:48:49;;;;;;;6.70;5.43;;;29.00;94.30;;;;;;4189304;28;20067;-61
2021/07/10 09:50:50;;;;;;;10.95;7.07;;;28.80;94.40;;;;;;4189341;28;20101;-61
2021/07/10 09:52:52;;;;;;;7.07;5.57;;;28.80;94.50;;;;;;4189607;28;20028;-61
2021/07/10 09:54:59;;;;;;;8.25;5.82;;;28.70;94.50;;;;;;4189351;28;20078;-61
2021/07/10 09:57:12;;;;;;;6.00;5.40;;;28.70;94.60;;;;;;4190226;28;20086;-61
2021/07/10 09:59:20;;;;;;;10.70;6.30;;;28.80;94.60;;;;;;4189553;28;20032;-60
2021/07/10 10:01:28;;;;;;;6.90;4.88;;;29.00;94.60;;;;;;4189411;28;20562;-61
2021/07/10 10:03:38;;;;;;;9.00;5.57;;;29.20;94.20;;;;;;4189127;28;20024;-61
2021/07/10 10:05:41;;;;;;;;;;;29.20;94.00;;;;;;4190655;28;20052;-61
2021/07/10 10:07:43;;;;;;;7.57;5.50;;;29.20;94.10;;;;;;4189315;28;19912;-64
2021/07/10 10:09:56;;;;;;;10.82;4.95;;;29.40;94.20;;;;;;4189633;28;20082;-62
2021/07/10 10:12:03;;;;;;;7.15;5.43;;;29.40;94.00;;;;;;4188247;28;20085;-60
2021/07/10 10:14:08;;;;;;;8.00;5.03;;;29.30;94.00;;;;;;4188659;28;20044;-60
2021/07/10 10:16:15;;;;;;;7.05;4.53;;;29.40;94.00;;;;;;4188976;28;20032;-60
2021/07/10 10:18:18;;;;;;;6.82;5.15;;;29.40;93.50;;;;;;4189309;28;20025;-60
2021/07/10 10:20:19;;;;;;;7.78;4.00;;;29.50;93.40;;;;;;4189202;28;20025;-60
2021/07/10 10:22:21;;;;;;;4.78;4.38;;;29.60;93.30;;;;;;4188926;28;20478;-59
2021/07/10 10:24:24;;;;;;;5.13;4.22;;;29.50;93.30;;;;;;4188854;28;20089;-59
2021/07/10 10:26:25;;;;;;;9.25;5.15;;;29.50;93.30;;;;;;4188936;28;20481;-60
2021/07/10 10:28:31;;;;;;;9.40;3.97;;;29.50;93.30;;;;;;4189261;28;20049;-61
2021/07/10 10:30:33;;;;;;;7.22;4.78;;;29.60;93.20;;;;;;4189320;28;20431;-60
2021/07/10 10:32:35;;;;;;;10.95;5.28;;;29.70;93.10;;;;;;4189474;28;20078;-60